aviador You're here:

PAIL Decoded Metar

ILIAMNA in AK, USA
Report Time2018-02-18 21:25:00
UTC Time2018-02-18 21:50:40
Flight Rules lifr LIFR
Wind110° at 09 kt
W.Decomp.*RWY 07: 8.3 kt HW 3.5 kt RCW
RWY 17: 2.0 kt HW 8.8 kt LCW
W.Rank110° ranks 7
Current wind is below 110° avg. (10.2)
Visibility1207 m
Phenomena:Light Snow
Mist
Clouds:Broken 004 Hf
Overcast 011 Hf
Ceiling400 ft
Temp00°C (ISA -15)
Dew Point00°C (100% RH)
AAT-5.2°C
QNH1030 hPa
Density Alt-2,126 ft
Elevation161 ft
Report Wrong Elevation
Raw Report
PAIL 182125Z 11009KT 3/4SM -SN BR BKN004 OVC011 00/00 A3042 RMK
AO2 P0002 T00000000=

Extra information for PAIL:More info

Metar Taf Metar & Taf Last 4 Metars F.Rules Stats Wind Profile Meteogram Temp Stats Airport Information Weather charts Add Link Nearby VenuesMetar ALERT Operation Metar Decoded Social comments

AIRNAV info for PAIL